createdAt,value
2022-09-01T00:00:15.112Z,17.56
2022-09-01T00:02:44.659Z,17.48
2022-09-01T00:05:12.975Z,17.49
2022-09-01T00:07:42.381Z,17.51
2022-09-01T00:10:11.249Z,17.48
2022-09-01T00:12:40.211Z,17.53
2022-09-01T00:15:12.161Z,17.48
2022-09-01T00:17:40.391Z,17.48
2022-09-01T00:20:10.067Z,17.43
2022-09-01T00:22:38.268Z,17.35
2022-09-01T00:25:08.848Z,17.38
2022-09-01T00:27:36.851Z,17.34
2022-09-01T00:30:05.919Z,17.32
2022-09-01T00:32:33.950Z,17.24
2022-09-01T00:35:02.174Z,17.16
2022-09-01T00:37:30.120Z,17.17
2022-09-01T00:39:58.135Z,17.11
2022-09-01T00:42:27.494Z,17.08
2022-09-01T00:44:55.522Z,17.00
2022-09-01T00:47:23.540Z,16.93
2022-09-01T00:49:53.375Z,16.91
2022-09-01T00:52:25.702Z,16.93
2022-09-01T00:54:59.299Z,16.94
2022-09-01T00:57:29.105Z,16.86
2022-09-01T01:00:00.412Z,16.83
2022-09-01T01:02:28.866Z,16.86
2022-09-01T01:05:00.522Z,16.83
2022-09-01T01:07:29.769Z,16.79
2022-09-01T01:09:58.327Z,16.81
2022-09-01T01:12:30.821Z,16.77
2022-09-01T01:15:01.187Z,16.74
2022-09-01T01:17:29.263Z,16.75
2022-09-01T01:20:15.920Z,16.75
2022-09-01T01:23:03.723Z,16.68
2022-09-01T01:25:36.844Z,16.66
2022-09-01T01:28:07.847Z,16.60
2022-09-01T01:30:37.161Z,16.58
2022-09-01T01:33:05.844Z,16.56
2022-09-01T01:35:34.950Z,16.54
2022-09-01T01:38:07.947Z,16.49
2022-09-01T01:40:39.112Z,16.48
2022-09-01T01:43:07.377Z,16.50
2022-09-01T01:45:35.631Z,16.35
2022-09-01T01:48:10.773Z,16.32
2022-09-01T01:50:38.919Z,16.40
2022-09-01T01:53:11.538Z,16.42
2022-09-01T01:55:43.873Z,16.33
2022-09-01T01:58:16.089Z,16.41
2022-09-01T02:00:47.344Z,16.38
2022-09-01T02:03:19.082Z,16.30
2022-09-01T02:05:49.230Z,16.33
2022-09-01T02:08:21.928Z,16.30
2022-09-01T02:10:53.119Z,16.35
2022-09-01T02:13:26.598Z,16.34
2022-09-01T02:15:56.889Z,16.23
2022-09-01T02:18:28.001Z,16.37
2022-09-01T02:20:58.888Z,16.34
2022-09-01T02:23:26.996Z,16.44
2022-09-01T02:26:17.614Z,16.49
2022-09-01T02:28:55.552Z,16.49
2022-09-01T02:31:24.807Z,16.43
2022-09-01T02:33:54.454Z,16.42
2022-09-01T02:36:23.046Z,16.36
2022-09-01T02:38:53.695Z,16.31
2022-09-01T02:41:29.152Z,16.30
2022-09-01T02:43:57.345Z,16.23
2022-09-01T02:46:26.232Z,16.25
2022-09-01T02:48:54.652Z,16.19
2022-09-01T02:51:26.291Z,16.14
2022-09-01T02:53:55.135Z,16.13
2022-09-01T02:56:27.593Z,16.11
2022-09-01T02:58:56.612Z,16.18
2022-09-01T03:01:29.577Z,16.13
2022-09-01T03:04:00.058Z,16.13
2022-09-01T03:06:28.577Z,16.06
2022-09-01T03:08:59.734Z,16.03
2022-09-01T03:11:30.505Z,16.06
2022-09-01T03:14:04.194Z,16.07
2022-09-01T03:16:33.239Z,16.12
2022-09-01T03:19:03.296Z,16.15
2022-09-01T03:21:32.282Z,16.14
2022-09-01T03:24:02.192Z,16.15
2022-09-01T03:26:32.569Z,16.15
2022-09-01T03:29:00.583Z,16.18
2022-09-01T03:31:31.028Z,16.16
2022-09-01T03:34:00.672Z,16.08
2022-09-01T03:36:30.128Z,16.09
2022-09-01T03:38:58.563Z,16.11
2022-09-01T03:41:29.555Z,16.00
2022-09-01T03:44:00.331Z,15.98
2022-09-01T03:46:36.253Z,16.00
2022-09-01T03:49:07.555Z,15.94
2022-09-01T03:51:38.997Z,15.97
2022-09-01T03:54:07.819Z,15.92
2022-09-01T03:56:36.131Z,15.95
2022-09-01T03:59:05.643Z,15.86
2022-09-01T04:01:43.509Z,15.84
2022-09-01T04:04:13.877Z,15.73
2022-09-01T04:06:43.274Z,15.79
2022-09-01T04:09:11.278Z,15.75
2022-09-01T04:11:45.220Z,15.74
2022-09-01T04:14:16.127Z,15.76
2022-09-01T04:17:02.907Z,15.73
2022-09-01T04:19:34.867Z,15.66
2022-09-01T04:22:03.240Z,15.64
2022-09-01T04:24:33.718Z,15.67
2022-09-01T04:27:03.980Z,15.56
2022-09-01T04:29:33.443Z,15.61
2022-09-01T04:32:05.577Z,15.63
2022-09-01T04:34:37.903Z,15.64
2022-09-01T04:37:10.244Z,15.72
2022-09-01T04:39:39.254Z,15.76
2022-09-01T04:42:09.357Z,15.83
2022-09-01T04:44:40.442Z,15.89
2022-09-01T04:47:10.966Z,15.93
2022-09-01T04:49:39.203Z,15.92
2022-09-01T04:52:07.245Z,15.98
2022-09-01T04:54:37.435Z,16.06
2022-09-01T04:57:07.079Z,16.10
2022-09-01T04:59:35.947Z,16.10
2022-09-01T05:02:07.813Z,16.15
2022-09-01T05:04:36.731Z,16.33
2022-09-01T05:07:06.332Z,16.30
2022-09-01T05:09:36.665Z,16.31
2022-09-01T05:12:12.444Z,16.39
2022-09-01T05:14:48.724Z,16.47
2022-09-01T05:17:18.732Z,16.50
2022-09-01T05:19:51.183Z,16.56
2022-09-01T05:22:23.131Z,16.61
2022-09-01T05:24:55.015Z,16.63
2022-09-01T05:27:24.134Z,16.58
2022-09-01T05:29:53.250Z,16.56
2022-09-01T05:32:26.148Z,16.59
2022-09-01T05:34:54.546Z,16.61
2022-09-01T05:37:23.011Z,16.67
2022-09-01T05:39:52.488Z,16.69
2022-09-01T05:42:20.504Z,16.73
2022-09-01T05:44:52.583Z,16.76
2022-09-01T05:47:23.129Z,16.82
2022-09-01T05:49:53.678Z,16.84
2022-09-01T05:52:25.632Z,16.79
2022-09-01T05:54:56.606Z,16.79
2022-09-01T05:57:34.465Z,16.85
2022-09-01T06:00:11.021Z,16.84
2022-09-01T06:02:41.194Z,16.91
2022-09-01T06:05:11.060Z,16.89
2022-09-01T06:07:42.852Z,16.88
2022-09-01T06:10:11.650Z,17.00
2022-09-01T06:12:40.734Z,17.03
2022-09-01T06:15:16.082Z,17.08
2022-09-01T06:17:46.383Z,17.22
2022-09-01T06:20:18.285Z,17.27
2022-09-01T06:22:47.485Z,17.37
2022-09-01T06:25:17.247Z,17.34
2022-09-01T06:27:46.082Z,17.49
2022-09-01T06:30:23.745Z,17.57
2022-09-01T06:32:54.727Z,17.64
2022-09-01T06:35:25.253Z,17.61
2022-09-01T06:37:53.230Z,17.73
2022-09-01T06:40:21.357Z,17.80
2022-09-01T06:42:52.469Z,17.89
2022-09-01T06:45:22.551Z,17.95
2022-09-01T06:47:59.375Z,18.02
2022-09-01T06:53:35.138Z,18.00
2022-09-01T06:56:04.041Z,17.97
2022-09-01T06:58:32.560Z,17.97
2022-09-01T07:01:01.032Z,18.00
2022-09-01T07:03:29.114Z,18.02
2022-09-01T07:06:00.861Z,18.13
2022-09-01T07:08:29.991Z,18.27
2022-09-01T07:16:51.822Z,18.77
2022-09-01T07:19:21.175Z,18.78
2022-09-01T07:24:40.164Z,19.00
2022-09-01T07:27:09.559Z,19.08
2022-09-01T07:29:39.354Z,19.14
2022-09-01T07:34:58.003Z,19.19
2022-09-01T07:43:19.549Z,19.37
2022-09-01T07:46:36.797Z,19.44
2022-09-01T07:49:02.877Z,19.54
2022-09-01T07:51:35.934Z,19.78
2022-09-01T07:54:07.106Z,19.90
2022-09-01T07:56:39.746Z,20.04
2022-09-01T07:59:10.602Z,20.12
2022-09-01T08:01:44.027Z,20.23
2022-09-01T08:04:12.317Z,20.27
2022-09-01T08:06:40.982Z,20.47
2022-09-01T08:09:11.656Z,20.56
2022-09-01T08:12:01.177Z,20.77
2022-09-01T08:14:33.749Z,21.01
2022-09-01T08:17:16.793Z,21.09
2022-09-01T08:19:47.038Z,21.07
2022-09-01T08:22:15.387Z,21.12
2022-09-01T08:24:44.721Z,21.21
2022-09-01T08:27:12.694Z,21.17
2022-09-01T08:29:42.207Z,21.27
2022-09-01T08:32:11.335Z,21.44
2022-09-01T08:34:39.820Z,21.63
2022-09-01T08:37:07.917Z,21.83
2022-09-01T08:39:35.931Z,22.02
2022-09-01T08:42:15.018Z,22.12
2022-09-01T08:44:50.652Z,22.28
2022-09-01T08:47:32.426Z,22.36
2022-09-01T08:50:09.129Z,22.58
2022-09-01T08:52:40.178Z,22.67
2022-09-01T08:55:16.097Z,22.64
2022-09-01T08:57:47.863Z,22.62
2022-09-01T09:00:20.250Z,22.83
2022-09-01T09:03:06.154Z,23.05
2022-09-01T09:05:44.655Z,23.02
2022-09-01T09:08:26.694Z,23.17
2022-09-01T09:11:05.559Z,23.21
2022-09-01T09:13:49.625Z,23.29
2022-09-01T09:16:21.027Z,23.45
2022-09-01T09:18:56.136Z,23.56
2022-09-01T09:21:29.955Z,23.56
2022-09-01T09:24:03.924Z,23.78
2022-09-01T09:26:42.293Z,23.93
2022-09-01T09:29:12.008Z,24.18
2022-09-01T09:31:49.942Z,24.31
2022-09-01T09:34:30.207Z,24.36
2022-09-01T09:36:58.223Z,24.50
2022-09-01T09:39:26.814Z,24.69
2022-09-01T09:42:09.629Z,24.83
2022-09-01T09:44:45.072Z,24.87
2022-09-01T09:47:46.574Z,25.02
2022-09-01T09:50:26.472Z,25.04
2022-09-01T09:53:15.321Z,25.04
2022-09-01T09:56:05.629Z,25.10
2022-09-01T09:58:38.424Z,25.08
2022-09-01T10:01:17.499Z,25.15
2022-09-01T10:03:50.470Z,25.07
2022-09-01T10:06:32.673Z,25.10
2022-09-01T10:09:02.339Z,25.29
2022-09-01T10:11:41.487Z,25.53
2022-09-01T10:14:35.428Z,25.58
2022-09-01T10:17:17.175Z,25.83
2022-09-01T10:19:56.882Z,25.93
2022-09-01T10:22:25.668Z,26.08
2022-09-01T10:24:53.972Z,26.37
2022-09-01T10:27:25.249Z,26.83
2022-09-01T10:30:14.082Z,27.38
2022-09-01T10:32:54.979Z,27.54
2022-09-01T10:35:28.286Z,27.53
2022-09-01T10:37:59.161Z,27.35
2022-09-01T10:40:43.376Z,27.08
2022-09-01T10:43:28.511Z,27.02
2022-09-01T10:46:03.702Z,26.64
2022-09-01T10:48:47.908Z,26.91
2022-09-01T10:51:56.466Z,26.76
2022-09-01T10:54:55.792Z,27.39
2022-09-01T10:57:44.531Z,28.00
2022-09-01T11:01:17.082Z,28.79
2022-09-01T11:03:57.115Z,29.99
2022-09-01T11:07:14.509Z,30.54
2022-09-01T11:09:44.827Z,30.90
2022-09-01T11:12:42.593Z,31.00
2022-09-01T11:15:36.924Z,30.26
2022-09-01T11:18:11.167Z,30.05
2022-09-01T11:20:42.022Z,30.08
2022-09-01T11:23:21.809Z,30.19
2022-09-01T11:28:43.156Z,30.11
2022-09-01T11:31:33.347Z,30.04
2022-09-01T11:34:11.614Z,29.87
2022-09-01T11:36:48.635Z,29.76
2022-09-01T11:39:31.132Z,30.06
2022-09-01T11:42:04.238Z,30.19
2022-09-01T11:44:39.687Z,30.15
2022-09-01T11:47:17.143Z,30.07
2022-09-01T11:49:54.991Z,30.28
2022-09-01T11:52:26.066Z,30.33
2022-09-01T11:54:55.805Z,30.79
2022-09-01T11:57:27.510Z,31.13
2022-09-01T11:59:57.305Z,31.51
2022-09-01T12:02:27.719Z,32.11
2022-09-01T12:04:57.043Z,32.81
2022-09-01T12:07:38.495Z,32.54
2022-09-01T12:10:15.901Z,32.58
2022-09-01T12:12:43.948Z,33.20
2022-09-01T12:15:20.472Z,33.26
2022-09-01T12:17:48.572Z,33.18
2022-09-01T12:20:30.989Z,32.89
2022-09-01T12:23:00.723Z,32.92
2022-09-01T12:25:32.329Z,32.44
2022-09-01T12:28:02.116Z,32.23
2022-09-01T12:30:30.756Z,32.29
2022-09-01T12:33:24.626Z,32.23
2022-09-01T12:35:57.488Z,32.18
2022-09-01T12:38:30.883Z,32.32
2022-09-01T12:41:00.381Z,31.84
2022-09-01T12:43:30.624Z,31.42
2022-09-01T12:46:01.049Z,31.17
2022-09-01T12:48:33.489Z,30.93
2022-09-01T12:51:04.375Z,30.75
2022-09-01T12:53:37.168Z,30.36
2022-09-01T12:56:22.819Z,29.98
2022-09-01T12:58:54.698Z,29.15
2022-09-01T13:01:29.730Z,29.22
2022-09-01T13:04:25.965Z,29.46
2022-09-01T13:06:55.028Z,29.18
2022-09-01T13:09:23.077Z,28.82
2022-09-01T13:12:08.216Z,29.05
2022-09-01T13:14:36.387Z,29.42
2022-09-01T13:17:04.464Z,29.90
2022-09-01T13:19:32.605Z,30.31
2022-09-01T13:22:00.621Z,30.87
2022-09-01T13:24:31.319Z,31.41
2022-09-01T13:29:50.142Z,32.04
2022-09-01T13:32:21.430Z,31.78
2022-09-01T13:34:51.950Z,31.57
2022-09-01T13:37:20.520Z,31.22
2022-09-01T13:39:48.730Z,30.98
2022-09-01T13:42:18.969Z,30.75
2022-09-01T13:44:49.793Z,31.15
2022-09-01T13:47:35.460Z,31.69
2022-09-01T13:50:11.939Z,31.68
2022-09-01T13:52:41.807Z,31.75
2022-09-01T13:55:13.301Z,30.35
2022-09-01T13:57:42.842Z,30.62
2022-09-01T14:00:16.478Z,29.76
2022-09-01T14:02:50.376Z,29.95
2022-09-01T14:05:18.862Z,29.41
2022-09-01T14:07:46.955Z,27.98
2022-09-01T14:10:15.151Z,27.07
2022-09-01T14:12:45.825Z,26.65
2022-09-01T14:15:18.582Z,26.46
2022-09-01T14:17:56.277Z,26.13
2022-09-01T14:20:31.427Z,26.19
2022-09-01T14:23:05.480Z,26.03
2022-09-01T14:25:34.940Z,26.15
2022-09-01T14:28:05.344Z,26.30
2022-09-01T14:30:34.040Z,26.49
2022-09-01T14:33:03.860Z,26.30
2022-09-01T14:35:33.246Z,26.31
2022-09-01T14:38:02.762Z,26.29
2022-09-01T14:40:30.811Z,26.57
2022-09-01T14:42:58.900Z,26.72
2022-09-01T14:45:29.801Z,26.90
2022-09-01T14:48:01.466Z,26.94
2022-09-01T14:50:32.727Z,26.97
2022-09-01T14:53:02.812Z,26.98
2022-09-01T14:55:32.010Z,26.96
2022-09-01T14:58:00.967Z,26.92
2022-09-01T15:00:31.747Z,26.96
2022-09-01T15:03:00.030Z,27.05
2022-09-01T15:05:28.023Z,26.96
2022-09-01T15:07:55.988Z,27.05
2022-09-01T15:10:26.277Z,26.98
2022-09-01T15:12:56.145Z,26.87
2022-09-01T15:15:25.446Z,26.89
2022-09-01T15:17:54.864Z,26.78
2022-09-01T15:20:40.667Z,26.69
2022-09-01T15:23:08.714Z,26.73
2022-09-01T15:25:36.744Z,26.87
2022-09-01T15:28:04.885Z,26.81
2022-09-01T15:30:33.743Z,26.91
2022-09-01T15:33:03.165Z,26.91
2022-09-01T15:35:32.088Z,26.82
2022-09-01T15:38:00.681Z,26.85
2022-09-01T15:40:29.398Z,26.77
2022-09-01T15:42:59.578Z,26.57
2022-09-01T15:45:31.648Z,26.31
2022-09-01T15:47:59.645Z,26.03
2022-09-01T15:50:29.379Z,25.98
2022-09-01T15:53:01.473Z,25.85
2022-09-01T15:55:31.734Z,25.81
2022-09-01T15:58:00.479Z,25.69
2022-09-01T16:00:29.701Z,25.46
2022-09-01T16:03:01.721Z,25.37
2022-09-01T16:05:32.075Z,25.27
2022-09-01T16:08:01.443Z,25.22
2022-09-01T16:10:33.563Z,25.24
2022-09-01T16:13:04.745Z,25.19
2022-09-01T16:15:34.895Z,25.13
2022-09-01T16:18:28.670Z,25.14
2022-09-01T16:21:02.738Z,25.08
2022-09-01T16:23:41.526Z,25.14
2022-09-01T16:26:11.809Z,24.99
2022-09-01T16:28:40.592Z,24.91
2022-09-01T16:31:13.345Z,24.79
2022-09-01T16:33:48.366Z,24.57
2022-09-01T16:36:30.256Z,24.39
2022-09-01T16:39:08.684Z,24.21
2022-09-01T16:41:48.208Z,23.94
2022-09-01T16:44:24.499Z,23.78
2022-09-01T16:47:04.390Z,23.46
2022-09-01T16:49:38.868Z,23.43
2022-09-01T16:52:17.201Z,23.27
2022-09-01T16:54:59.374Z,23.08
2022-09-01T16:57:37.035Z,23.05
2022-09-01T17:00:09.354Z,22.98
2022-09-01T17:02:50.318Z,22.88
2022-09-01T17:05:25.727Z,22.89
2022-09-01T17:08:06.942Z,22.74
2022-09-01T17:10:42.276Z,22.76
2022-09-01T17:13:20.363Z,22.71
2022-09-01T17:15:55.526Z,22.62
2022-09-01T17:18:33.507Z,22.48
2022-09-01T17:21:09.505Z,22.39
2022-09-01T17:23:46.232Z,22.43
2022-09-01T17:26:20.670Z,22.49
2022-09-01T17:28:55.397Z,22.47
2022-09-01T17:31:44.704Z,22.46
2022-09-01T17:34:23.972Z,22.41
2022-09-01T17:37:02.021Z,22.39
2022-09-01T17:39:42.164Z,22.25
2022-09-01T17:42:21.657Z,22.14
2022-09-01T17:44:56.211Z,22.14
2022-09-01T17:47:37.263Z,22.05
2022-09-01T17:50:14.172Z,22.05
2022-09-01T17:52:53.191Z,22.05
2022-09-01T17:55:42.922Z,22.05
2022-09-01T17:58:23.523Z,22.03
2022-09-01T18:01:01.668Z,21.99
2022-09-01T18:03:45.537Z,21.99
2022-09-01T18:06:21.847Z,21.92
2022-09-01T18:08:53.987Z,21.94
2022-09-01T18:11:30.408Z,22.02
2022-09-01T18:14:03.585Z,21.98
2022-09-01T18:16:37.852Z,22.05
2022-09-01T18:19:15.003Z,22.04
2022-09-01T18:21:49.628Z,22.08
2022-09-01T18:24:21.951Z,22.10
2022-09-01T18:26:53.155Z,22.12
2022-09-01T18:29:23.237Z,22.07
2022-09-01T18:32:13.395Z,21.95
2022-09-01T18:35:01.854Z,21.75
2022-09-01T18:37:36.222Z,21.64
2022-09-01T18:40:13.364Z,21.58
2022-09-01T18:42:48.505Z,21.58
2022-09-01T18:45:25.600Z,21.45
2022-09-01T18:48:01.887Z,21.44
2022-09-01T18:50:34.560Z,21.47
2022-09-01T18:53:16.629Z,21.43
2022-09-01T18:55:52.930Z,21.46
2022-09-01T18:58:38.451Z,21.45
2022-09-01T19:01:10.028Z,21.49
2022-09-01T19:03:43.105Z,21.44
2022-09-01T19:06:27.272Z,21.44
2022-09-01T19:09:12.758Z,21.38
2022-09-01T19:12:01.672Z,21.32
2022-09-01T19:14:42.254Z,21.26
2022-09-01T19:17:30.983Z,21.22
2022-09-01T19:20:03.433Z,21.23
2022-09-01T19:22:40.567Z,21.21
2022-09-01T19:25:28.699Z,21.15
2022-09-01T19:28:02.058Z,21.16
2022-09-01T19:30:35.419Z,21.11
2022-09-01T19:33:06.090Z,21.05
2022-09-01T19:35:37.929Z,20.97
2022-09-01T19:38:08.908Z,20.92
2022-09-01T19:40:40.674Z,20.84
2022-09-01T19:43:13.572Z,20.84
2022-09-01T19:45:56.109Z,20.53
2022-09-01T19:48:30.589Z,20.30
2022-09-01T19:51:04.551Z,20.36
2022-09-01T19:53:41.540Z,20.61
2022-09-01T19:56:14.728Z,20.71
2022-09-01T19:58:53.445Z,20.78
2022-09-01T20:01:37.593Z,20.83
2022-09-01T20:04:14.910Z,20.87
2022-09-01T20:06:48.380Z,20.87
2022-09-01T20:09:21.125Z,20.86
2022-09-01T20:11:53.993Z,20.83
2022-09-01T20:14:54.276Z,20.69
2022-09-01T20:17:30.435Z,20.72
2022-09-01T20:20:05.046Z,20.70
2022-09-01T20:22:40.449Z,20.73
2022-09-01T20:25:11.363Z,20.69
2022-09-01T20:27:48.854Z,20.62
2022-09-01T20:30:19.863Z,20.50
2022-09-01T20:32:59.434Z,20.51
2022-09-01T20:35:37.579Z,20.38
2022-09-01T20:38:35.586Z,20.33
2022-09-01T20:41:13.199Z,20.33
2022-09-01T20:43:46.390Z,20.34
2022-09-01T20:46:19.214Z,20.34
2022-09-01T20:48:49.856Z,20.34
2022-09-01T20:51:22.823Z,20.28
2022-09-01T20:54:09.863Z,20.25
2022-09-01T20:56:50.846Z,20.28
2022-09-01T20:59:23.772Z,20.34
2022-09-01T21:01:59.580Z,20.35
2022-09-01T21:04:45.247Z,20.42
2022-09-01T21:07:17.682Z,20.39
2022-09-01T21:09:57.405Z,20.43
2022-09-01T21:12:34.732Z,20.43
2022-09-01T21:15:20.280Z,20.43
2022-09-01T21:17:58.383Z,20.40
2022-09-01T21:20:48.211Z,20.38
2022-09-01T21:23:16.397Z,20.43
2022-09-01T21:25:45.204Z,20.41
2022-09-01T21:28:20.218Z,20.47
2022-09-01T21:30:52.050Z,20.46
2022-09-01T21:33:20.136Z,20.44
2022-09-01T21:35:49.500Z,20.41
2022-09-01T21:38:17.539Z,20.37
2022-09-01T21:40:46.419Z,20.33
2022-09-01T21:43:19.142Z,20.29
2022-09-01T21:45:47.842Z,20.23
2022-09-01T21:48:16.060Z,20.18
2022-09-01T21:50:44.460Z,20.26
2022-09-01T21:53:14.763Z,20.24
2022-09-01T21:55:43.822Z,20.29
2022-09-01T21:58:11.932Z,20.32
2022-09-01T22:00:43.254Z,20.28
2022-09-01T22:03:12.752Z,20.35
2022-09-01T22:05:42.444Z,20.37
2022-09-01T22:08:12.133Z,20.30
2022-09-01T22:10:45.832Z,20.32
2022-09-01T22:13:15.837Z,20.35
2022-09-01T22:15:45.858Z,20.41
2022-09-01T22:18:14.595Z,20.51
2022-09-01T22:20:43.506Z,20.57
2022-09-01T22:23:12.148Z,20.64
2022-09-01T22:25:44.597Z,20.72
2022-09-01T22:28:13.031Z,20.77
2022-09-01T22:30:46.002Z,20.82
2022-09-01T22:33:14.342Z,20.82
2022-09-01T22:35:43.407Z,20.83
2022-09-01T22:38:11.924Z,20.74
2022-09-01T22:40:46.969Z,20.68
2022-09-01T22:46:06.495Z,20.60
2022-09-01T22:48:34.496Z,20.62
2022-09-01T22:51:07.120Z,20.55
2022-09-01T22:53:35.811Z,20.58
2022-09-01T22:56:12.431Z,20.56
2022-09-01T22:58:40.987Z,20.47
2022-09-01T23:01:14.966Z,20.47
2022-09-01T23:03:43.901Z,20.45
2022-09-01T23:06:14.350Z,20.44
2022-09-01T23:08:53.409Z,20.39
2022-09-01T23:11:22.937Z,20.37
2022-09-01T23:13:51.075Z,20.39
2022-09-01T23:16:22.528Z,20.38
2022-09-01T23:18:51.509Z,20.30
2022-09-01T23:21:21.313Z,20.29
2022-09-01T23:23:55.185Z,20.22
2022-09-01T23:26:29.139Z,20.17
2022-09-01T23:28:57.814Z,20.14
2022-09-01T23:31:28.834Z,20.07
2022-09-01T23:33:56.891Z,20.08
2022-09-01T23:36:27.085Z,20.14
2022-09-01T23:38:56.654Z,20.17
2022-09-01T23:41:31.000Z,20.21
2022-09-01T23:44:01.373Z,20.17
2022-09-01T23:46:31.416Z,20.28
2022-09-01T23:48:59.500Z,20.32
2022-09-01T23:51:28.585Z,20.29
2022-09-01T23:53:56.605Z,20.36
2022-09-01T23:56:28.313Z,20.32
2022-09-01T23:58:56.988Z,20.33
